Time;durP1;ratioP1;P1;durP2;ratioP2;P2;SDS_P1;SDS_P2;PMS_P1;PMS_P2;Temp;Humidity;BMP_temperature;BMP_pressure;BME280_temperature;BME280_humidity;BME280_pressure;Samples;Min_cycle;Max_cycle;Signal;HPM_P1;HPM_P2
2023/04/09 00:00:12;;;;;;;15.77;14.00;;;8.20;99.90;;;;;;4927636;29;20271;-71
2023/04/09 00:02:40;;;;;;;15.87;14.17;;;8.00;99.90;;;;;;4928047;29;20207;-71
2023/04/09 00:05:08;;;;;;;16.60;14.50;;;8.00;99.90;;;;;;4928465;29;20215;-69
2023/04/09 00:07:35;;;;;;;18.27;14.03;;;8.00;99.90;;;;;;4928601;29;20231;-69
2023/04/09 00:10:02;;;;;;;15.67;13.97;;;8.00;99.90;;;;;;4928028;29;20303;-69
2023/04/09 00:12:29;;;;;;;16.30;14.50;;;7.90;99.90;;;;;;4927971;29;20472;-71
2023/04/09 00:14:56;;;;;;;16.93;14.70;;;7.80;99.90;;;;;;4928689;29;20577;-71
2023/04/09 00:17:23;;;;;;;18.77;15.67;;;7.80;99.90;;;;;;4928271;29;20266;-71
2023/04/09 00:19:51;;;;;;;17.87;15.63;;;7.80;99.90;;;;;;4928281;29;20216;-71
2023/04/09 00:22:18;;;;;;;16.03;14.37;;;7.70;99.90;;;;;;4928664;29;20208;-71
2023/04/09 00:24:45;;;;;;;18.03;15.40;;;7.80;99.90;;;;;;4928686;29;20208;-71
2023/04/09 00:27:12;;;;;;;18.87;15.27;;;7.60;99.90;;;;;;4927813;29;20323;-71
2023/04/09 00:29:39;;;;;;;19.10;15.77;;;7.50;99.90;;;;;;4929077;29;20243;-71
2023/04/09 00:32:06;;;;;;;17.17;14.70;;;7.50;99.90;;;;;;4927492;29;20287;-71
2023/04/09 00:34:33;;;;;;;17.13;15.30;;;7.50;99.90;;;;;;4927868;29;20667;-71
2023/04/09 00:37:01;;;;;;;17.73;15.07;;;7.50;99.90;;;;;;4928162;29;20586;-71
2023/04/09 00:39:28;;;;;;;19.53;15.17;;;7.40;99.90;;;;;;4928098;29;20657;-71
2023/04/09 00:41:57;;;;;;;18.33;15.20;;;7.30;99.90;;;;;;4927835;29;20298;-71
2023/04/09 00:44:25;;;;;;;19.10;16.13;;;7.30;99.90;;;;;;4915930;29;20578;-71
2023/04/09 00:46:52;;;;;;;18.40;16.13;;;7.40;99.90;;;;;;4928013;29;20207;-71
2023/04/09 00:49:19;;;;;;;19.30;16.23;;;7.30;99.90;;;;;;4928438;29;20227;-71
2023/04/09 00:51:47;;;;;;;20.23;16.43;;;7.30;99.90;;;;;;4928200;29;20219;-71
2023/04/09 00:54:16;;;;;;;20.33;16.43;;;7.40;99.90;;;;;;4917772;29;20308;-71
2023/04/09 00:56:43;;;;;;;19.30;15.90;;;7.40;99.90;;;;;;4916256;29;20287;-71
2023/04/09 00:59:10;;;;;;;21.63;15.50;;;7.30;99.90;;;;;;4927592;29;20769;-71
2023/04/09 01:01:37;;;;;;;19.23;15.90;;;7.30;99.90;;;;;;4927758;29;20299;-70
2023/04/09 01:04:05;;;;;;;19.07;16.37;;;7.30;99.90;;;;;;4927956;29;20211;-70
2023/04/09 01:06:39;;;;;;;18.53;15.77;;;7.30;99.90;;;;;;4928039;29;20208;-71
2023/04/09 01:09:12;;;;;;;21.00;15.63;;;7.30;99.90;;;;;;4927893;29;20304;-70
2023/04/09 01:11:58;;;;;;;17.70;15.80;;;7.20;99.90;;;;;;4927769;29;20304;-70
2023/04/09 01:14:30;;;;;;;18.17;15.53;;;7.20;99.90;;;;;;4935266;29;20583;-71
2023/04/09 01:17:03;;;;;;;18.57;15.83;;;7.30;99.90;;;;;;4946121;28;20239;-71
2023/04/09 01:19:43;;;;;;;20.13;15.83;;;7.30;99.90;;;;;;4946593;28;20203;-71
2023/04/09 01:22:24;;;;;;;21.10;17.13;;;7.30;99.90;;;;;;4911711;29;20643;-70
2023/04/09 01:25:03;;;;;;;19.63;15.77;;;7.30;99.90;;;;;;4927564;29;20247;-70
2023/04/09 01:27:44;;;;;;;20.57;16.60;;;7.20;99.90;;;;;;4927724;29;20214;-70
2023/04/09 01:30:14;;;;;;;20.27;16.63;;;7.20;99.90;;;;;;4927492;29;20208;-70
2023/04/09 01:32:43;;;;;;;17.13;15.00;;;7.20;99.90;;;;;;4927112;29;20205;-70
2023/04/09 01:35:10;;;;;;;20.37;17.37;;;7.20;99.90;;;;;;4927212;29;20308;-70
2023/04/09 01:37:38;;;;;;;19.70;17.53;;;7.20;99.90;;;;;;4927406;29;20263;-71
2023/04/09 01:40:07;;;;;;;20.27;17.23;;;7.30;99.90;;;;;;4927366;29;20697;-71
2023/04/09 01:42:36;;;;;;;22.07;17.83;;;7.30;99.90;;;;;;4927885;29;20288;-71
2023/04/09 01:45:05;;;;;;;23.07;18.17;;;7.20;99.90;;;;;;4929774;29;20668;-71
2023/04/09 01:47:35;;;;;;;20.77;17.63;;;7.20;99.90;;;;;;4930363;29;20247;-71
2023/04/09 01:50:02;;;;;;;21.63;18.47;;;7.10;99.90;;;;;;4930821;29;20654;-70
2023/04/09 01:52:30;;;;;;;21.83;17.40;;;7.10;99.90;;;;;;4930723;29;20814;-71
2023/04/09 01:54:57;;;;;;;22.30;17.87;;;7.00;99.90;;;;;;4930740;29;20299;-71
2023/04/09 01:57:24;;;;;;;19.10;16.97;;;7.00;99.90;;;;;;4931291;29;20307;-71
2023/04/09 01:59:51;;;;;;;19.73;17.60;;;6.90;99.90;;;;;;4930828;29;20229;-71
2023/04/09 02:02:22;;;;;;;19.50;16.43;;;6.80;99.90;;;;;;4930521;29;20322;-71
2023/04/09 02:04:53;;;;;;;20.77;17.40;;;6.70;99.90;;;;;;4930953;29;20222;-71
2023/04/09 02:07:27;;;;;;;19.23;16.23;;;6.70;99.90;;;;;;4930646;29;20319;-71
2023/04/09 02:09:55;;;;;;;17.60;15.67;;;6.60;99.90;;;;;;4930446;29;20200;-71
2023/04/09 02:12:24;;;;;;;19.20;15.40;;;6.50;99.90;;;;;;4930969;29;20312;-71
2023/04/09 02:14:52;;;;;;;20.50;16.43;;;6.40;99.90;;;;;;4930848;29;20263;-73
2023/04/09 02:17:19;;;;;;;21.83;17.90;;;6.40;99.90;;;;;;4930030;29;20649;-71
2023/04/09 02:19:48;;;;;;;19.80;16.77;;;6.30;99.90;;;;;;4930836;29;20276;-72
2023/04/09 02:22:17;;;;;;;22.83;17.77;;;6.30;99.90;;;;;;4930619;29;20770;-71
2023/04/09 02:24:44;;;;;;;22.53;17.43;;;6.30;99.90;;;;;;4930521;29;20817;-71
2023/04/09 02:27:11;;;;;;;21.40;17.60;;;6.20;99.90;;;;;;4930281;29;20662;-70
2023/04/09 02:29:39;;;;;;;18.77;16.50;;;6.30;99.90;;;;;;4930345;29;20303;-70
2023/04/09 02:32:06;;;;;;;19.83;17.00;;;6.30;99.90;;;;;;4929843;29;20299;-70
2023/04/09 02:34:33;;;;;;;22.73;17.27;;;6.30;99.90;;;;;;4930271;29;20301;-70
2023/04/09 02:37:00;;;;;;;22.10;18.17;;;6.30;99.90;;;;;;4930197;29;20319;-70
2023/04/09 02:39:28;;;;;;;21.80;17.10;;;6.30;99.90;;;;;;4930065;29;20232;-70
2023/04/09 02:41:56;;;;;;;20.57;17.83;;;6.20;99.90;;;;;;4929662;29;20254;-70
2023/04/09 02:44:23;;;;;;;17.97;16.03;;;6.10;99.90;;;;;;4929624;29;21041;-70
2023/04/09 02:46:51;;;;;;;20.23;17.07;;;6.10;99.90;;;;;;4929434;29;20825;-69
2023/04/09 02:49:18;;;;;;;19.50;16.43;;;6.10;99.90;;;;;;4929906;29;20252;-69
2023/04/09 02:51:45;;;;;;;22.67;17.10;;;6.10;99.90;;;;;;4929487;29;20303;-69
2023/04/09 02:54:11;;;;;;;21.60;17.77;;;6.00;99.90;;;;;;4929423;29;20299;-69
2023/04/09 02:56:40;;;;;;;22.67;17.70;;;6.00;99.90;;;;;;4929123;29;20754;-69
2023/04/09 02:59:07;;;;;;;20.90;17.53;;;5.90;99.90;;;;;;4924763;29;20259;-69
2023/04/09 03:01:33;;;;;;;20.23;17.17;;;5.80;99.90;;;;;;4929452;29;20215;-69
2023/04/09 03:04:01;;;;;;;18.60;16.27;;;5.80;99.90;;;;;;4929234;29;20216;-69
2023/04/09 03:06:27;;;;;;;20.10;16.57;;;5.80;99.90;;;;;;4929618;29;20302;-69
2023/04/09 03:08:54;;;;;;;19.50;16.80;;;5.80;99.90;;;;;;4929353;29;20343;-69
2023/04/09 03:11:21;;;;;;;19.80;16.83;;;5.80;99.90;;;;;;4929601;29;20327;-69
2023/04/09 03:13:49;;;;;;;18.43;15.93;;;5.70;99.90;;;;;;4929388;29;20632;-69
2023/04/09 03:16:16;;;;;;;18.93;16.30;;;5.70;99.90;;;;;;4934007;29;20322;-69
2023/04/09 03:18:43;;;;;;;17.03;15.20;;;5.70;99.90;;;;;;4948574;28;20774;-69
2023/04/09 03:21:10;;;;;;;19.23;16.07;;;5.80;99.90;;;;;;4936632;28;20215;-69
2023/04/09 03:23:37;;;;;;;19.10;16.03;;;5.70;99.90;;;;;;4929389;29;20263;-69
2023/04/09 03:26:05;;;;;;;17.97;15.97;;;5.60;99.90;;;;;;4928887;29;20320;-70
2023/04/09 03:28:32;;;;;;;18.20;15.67;;;5.70;99.90;;;;;;4929109;29;20432;-70
2023/04/09 03:31:00;;;;;;;18.30;15.87;;;5.60;99.90;;;;;;4928593;29;20247;-69
2023/04/09 03:33:27;;;;;;;17.77;15.30;;;5.60;99.90;;;;;;4929179;29;20295;-70
2023/04/09 03:35:54;;;;;;;17.90;15.67;;;5.70;99.90;;;;;;4928853;29;20208;-70
2023/04/09 03:38:21;;;;;;;17.53;15.67;;;5.70;99.90;;;;;;4926819;29;20315;-70
2023/04/09 03:40:48;;;;;;;17.83;14.57;;;5.70;99.90;;;;;;4910896;29;20219;-70
2023/04/09 03:43:15;;;;;;;16.23;14.53;;;5.60;99.90;;;;;;4929063;29;20216;-71
2023/04/09 03:45:42;;;;;;;17.17;14.83;;;5.50;99.90;;;;;;4928934;29;20303;-72
2023/04/09 03:48:10;;;;;;;16.23;14.57;;;5.40;99.90;;;;;;4929027;29;20220;-72
2023/04/09 03:50:40;;;;;;;18.30;15.37;;;5.40;99.90;;;;;;4929089;29;20239;-71
2023/04/09 03:53:08;;;;;;;16.10;13.70;;;5.40;99.90;;;;;;4928805;29;20291;-70
2023/04/09 03:55:35;;;;;;;15.53;13.90;;;5.40;99.90;;;;;;4928835;29;20315;-70
2023/04/09 03:58:01;;;;;;;17.87;15.00;;;5.40;99.90;;;;;;4928669;29;20295;-70
2023/04/09 04:00:28;;;;;;;16.77;14.13;;;5.30;99.90;;;;;;4910029;29;20255;-70
2023/04/09 04:02:55;;;;;;;17.87;14.87;;;5.40;99.90;;;;;;4909764;29;20209;-70
2023/04/09 04:05:25;;;;;;;19.23;14.67;;;5.30;99.90;;;;;;4918169;29;20295;-70
2023/04/09 04:07:52;;;;;;;17.03;13.90;;;5.40;99.90;;;;;;4927484;29;20243;-70
2023/04/09 04:10:19;;;;;;;16.90;15.10;;;5.40;99.90;;;;;;4928374;29;20218;-70
2023/04/09 04:12:46;;;;;;;18.33;15.20;;;5.40;99.90;;;;;;4928337;29;20561;-70
2023/04/09 04:15:13;;;;;;;18.37;14.77;;;5.40;99.90;;;;;;4927944;29;20339;-71
2023/04/09 04:17:40;;;;;;;19.27;15.33;;;5.40;99.90;;;;;;4928589;29;20315;-70
2023/04/09 04:20:08;;;;;;;20.20;16.10;;;5.40;99.90;;;;;;4927969;29;20243;-70
2023/04/09 04:22:36;;;;;;;18.20;15.07;;;5.50;99.90;;;;;;4928124;29;20314;-70
2023/04/09 04:25:04;;;;;;;20.07;15.67;;;5.50;99.90;;;;;;4928087;29;20232;-70
2023/04/09 04:27:31;;;;;;;19.90;15.10;;;5.40;99.90;;;;;;4928293;29;20212;-70
2023/04/09 04:29:59;;;;;;;17.60;15.23;;;5.40;99.90;;;;;;4927830;29;20580;-70
2023/04/09 04:32:28;;;;;;;24.53;16.30;;;5.50;99.90;;;;;;4927895;29;20224;-70
2023/04/09 04:34:55;;;;;;;19.47;15.03;;;5.40;99.90;;;;;;4927989;29;20220;-70
2023/04/09 04:37:22;;;;;;;21.00;15.27;;;5.40;99.90;;;;;;4928252;29;20295;-70
2023/04/09 04:39:53;;;;;;;21.13;15.20;;;5.30;99.90;;;;;;4928184;29;20235;-70
2023/04/09 04:42:20;;;;;;;21.87;16.10;;;5.20;99.90;;;;;;4928417;29;20400;-70
2023/04/09 04:44:47;;;;;;;31.47;15.77;;;5.20;99.90;;;;;;4928132;29;20323;-70
2023/04/09 04:47:14;;;;;;;18.90;14.83;;;5.20;99.90;;;;;;4927963;29;20300;-70
2023/04/09 04:49:41;;;;;;;16.80;13.80;;;5.20;99.90;;;;;;4928444;29;20260;-70
2023/04/09 04:52:08;;;;;;;17.13;14.40;;;5.30;99.90;;;;;;4927617;29;20208;-70
2023/04/09 04:54:34;;;;;;;16.20;14.43;;;5.50;99.90;;;;;;4927866;29;20208;-71
2023/04/09 04:57:03;;;;;;;16.50;13.93;;;5.60;99.90;;;;;;4927914;29;20306;-71
2023/04/09 04:59:30;;;;;;;18.37;14.63;;;5.70;99.90;;;;;;4927885;29;20239;-71
2023/04/09 05:01:56;;;;;;;16.30;13.50;;;5.70;99.90;;;;;;4927708;29;20283;-71
2023/04/09 05:04:23;;;;;;;20.33;14.47;;;5.70;99.90;;;;;;4928136;29;20291;-70
2023/04/09 05:06:50;;;;;;;17.10;14.27;;;5.60;99.90;;;;;;4927768;29;20219;-70
2023/04/09 05:09:17;;;;;;;17.87;13.97;;;5.70;99.90;;;;;;4937227;29;20531;-70
2023/04/09 05:11:44;;;;;;;16.70;14.63;;;5.70;99.90;;;;;;4947046;28;20318;-70
2023/04/09 05:14:12;;;;;;;19.13;14.30;;;5.70;99.90;;;;;;4946928;28;20219;-70
2023/04/09 05:16:39;;;;;;;18.97;13.87;;;5.70;99.90;;;;;;4946370;28;20334;-70
2023/04/09 05:19:06;;;;;;;21.00;15.20;;;5.70;99.90;;;;;;4944489;28;20754;-70
2023/04/09 05:21:33;;;;;;;17.73;13.70;;;5.70;99.90;;;;;;4931413;29;20208;-70
2023/04/09 05:24:00;;;;;;;17.73;14.00;;;5.70;99.90;;;;;;4931452;29;20212;-70
2023/04/09 05:26:27;;;;;;;20.70;14.67;;;5.60;99.90;;;;;;4931203;29;20307;-72
2023/04/09 05:28:54;;;;;;;25.10;14.43;;;5.60;99.90;;;;;;4931418;29;20651;-72
2023/04/09 05:31:23;;;;;;;29.40;14.83;;;5.60;99.90;;;;;;4931563;29;20212;-70
2023/04/09 05:33:49;;;;;;;19.70;14.80;;;5.60;99.90;;;;;;4930932;29;20210;-71
2023/04/09 05:36:18;;;;;;;34.77;14.53;;;5.60;99.90;;;;;;4931339;29;20274;-71
2023/04/09 05:38:46;;;;;;;16.40;14.60;;;5.50;99.90;;;;;;4931449;29;20232;-71
2023/04/09 05:41:13;;;;;;;16.77;14.33;;;5.50;99.90;;;;;;4931201;29;20686;-71
2023/04/09 05:43:41;;;;;;;21.73;15.67;;;5.70;99.90;;;;;;4931364;29;20212;-71
2023/04/09 05:46:08;;;;;;;22.53;14.67;;;5.80;99.90;;;;;;4930551;29;20212;-71
2023/04/09 05:48:37;;;;;;;27.43;15.07;;;5.80;99.90;;;;;;4930771;29;20731;-71
2023/04/09 05:51:04;;;;;;;21.67;14.13;;;5.80;99.90;;;;;;4931009;29;20239;-70
2023/04/09 05:53:31;;;;;;;18.60;15.13;;;5.90;99.90;;;;;;4930753;29;20203;-71
2023/04/09 05:55:58;;;;;;;21.77;14.50;;;5.90;99.90;;;;;;4930750;29;20291;-70
2023/04/09 05:58:26;;;;;;;22.23;15.67;;;5.90;99.90;;;;;;4930795;29;20955;-71
2023/04/09 06:00:53;;;;;;;20.03;14.97;;;5.90;99.90;;;;;;4930456;29;20223;-71
2023/04/09 06:03:20;;;;;;;19.13;15.20;;;6.00;99.90;;;;;;4930930;29;20311;-71
2023/04/09 06:05:48;;;;;;;17.73;14.67;;;5.90;99.90;;;;;;4930778;29;20638;-70
2023/04/09 06:08:15;;;;;;;18.77;15.87;;;5.90;99.90;;;;;;4930841;29;20812;-71
2023/04/09 06:10:42;;;;;;;20.47;15.20;;;6.00;99.90;;;;;;4929727;29;20708;-70
2023/04/09 06:13:10;;;;;;;18.87;15.43;;;6.10;99.90;;;;;;4929996;29;20205;-71
2023/04/09 06:15:38;;;;;;;18.73;15.57;;;6.10;99.90;;;;;;4929801;29;20332;-70
2023/04/09 06:18:05;;;;;;;17.77;15.27;;;6.10;99.90;;;;;;4930089;29;20294;-70
2023/04/09 06:20:32;;;;;;;18.93;15.47;;;6.20;99.90;;;;;;4922371;29;20237;-70
2023/04/09 06:23:00;;;;;;;22.80;16.33;;;6.30;99.90;;;;;;4926521;29;20571;-70
2023/04/09 06:25:29;;;;;;;21.80;16.63;;;6.30;99.90;;;;;;4930000;29;20227;-70
2023/04/09 06:27:56;;;;;;;21.57;15.67;;;6.30;99.90;;;;;;4929872;29;20204;-72
2023/04/09 06:30:23;;;;;;;21.20;16.50;;;6.40;99.90;;;;;;4914746;29;20219;-71
2023/04/09 06:32:50;;;;;;;21.27;17.07;;;6.40;99.90;;;;;;4928941;29;20247;-70
2023/04/09 06:35:17;;;;;;;21.43;17.47;;;6.40;99.90;;;;;;4928252;29;20243;-70
2023/04/09 06:37:44;;;;;;;20.73;16.60;;;6.40;99.90;;;;;;4929230;29;20287;-72
2023/04/09 06:40:15;;;;;;;23.07;17.10;;;6.50;99.90;;;;;;4929433;29;20275;-71
2023/04/09 06:42:42;;;;;;;22.47;15.37;;;6.40;99.90;;;;;;4924744;29;20283;-72
2023/04/09 06:45:10;;;;;;;19.37;16.40;;;6.50;99.90;;;;;;4927212;29;20295;-71
2023/04/09 06:47:37;;;;;;;19.43;16.37;;;6.40;99.90;;;;;;4928214;29;20830;-71
2023/04/09 06:50:05;;;;;;;19.23;15.87;;;6.40;99.90;;;;;;4928581;29;20235;-71
2023/04/09 06:52:31;;;;;;;21.80;17.10;;;6.40;99.90;;;;;;4928378;29;20207;-71
2023/04/09 06:54:58;;;;;;;19.73;16.47;;;6.40;99.90;;;;;;4920867;29;20208;-71
2023/04/09 06:57:27;;;;;;;19.47;16.10;;;6.40;99.90;;;;;;4928417;29;20204;-71
2023/04/09 06:59:54;;;;;;;18.10;15.43;;;6.50;99.90;;;;;;4914361;29;20244;-72
2023/04/09 07:02:20;;;;;;;17.90;15.97;;;6.50;99.90;;;;;;4924848;29;20248;-70
2023/04/09 07:04:48;;;;;;;19.80;15.63;;;6.60;99.90;;;;;;4929410;29;20300;-69
2023/04/09 07:07:15;;;;;;;19.10;16.00;;;6.60;99.90;;;;;;4928802;29;20216;-68
2023/04/09 07:09:45;;;;;;;20.50;16.50;;;6.70;99.90;;;;;;4929182;29;20222;-71
2023/04/09 07:12:12;;;;;;;21.33;16.87;;;6.80;99.90;;;;;;4928914;29;20212;-69
2023/04/09 07:14:40;;;;;;;29.33;26.13;;;6.90;99.90;;;;;;4928826;29;20239;-70
2023/04/09 07:17:07;;;;;;;52.10;46.93;;;6.90;99.90;;;;;;4928230;29;20231;-71
2023/04/09 07:19:34;;;;;;;21.50;17.57;;;7.00;99.90;;;;;;4928596;29;20243;-72
2023/04/09 07:22:01;;;;;;;21.13;17.40;;;7.00;99.90;;;;;;4914042;29;20257;-72
2023/04/09 07:24:28;;;;;;;19.73;17.00;;;7.00;99.90;;;;;;4908705;29;20778;-72
2023/04/09 07:26:55;;;;;;;18.73;15.80;;;7.00;99.90;;;;;;4925468;29;20741;-72
2023/04/09 07:29:22;;;;;;;18.97;16.53;;;7.10;99.90;;;;;;4928092;29;20690;-72
2023/04/09 07:31:51;;;;;;;20.47;17.60;;;7.20;99.90;;;;;;4927394;29;20294;-73
2023/04/09 07:34:18;;;;;;;22.27;17.50;;;7.10;99.90;;;;;;4925770;29;20295;-72
2023/04/09 07:36:45;;;;;;;19.27;16.67;;;7.10;99.90;;;;;;4928222;29;20302;-71
2023/04/09 07:39:12;;;;;;;20.60;17.40;;;7.10;99.90;;;;;;4927548;29;20219;-74
2023/04/09 07:41:40;;;;;;;21.60;18.50;;;7.10;99.90;;;;;;4926988;29;20303;-73
2023/04/09 07:44:08;;;;;;;21.37;17.43;;;7.10;99.90;;;;;;4927378;29;20271;-72
2023/04/09 07:46:35;;;;;;;21.00;17.37;;;7.10;99.90;;;;;;4926818;29;20294;-73
2023/04/09 07:49:06;;;;;;;22.77;18.27;;;7.10;99.90;;;;;;4926583;29;20212;-73
2023/04/09 07:51:33;;;;;;;20.47;17.27;;;7.00;99.90;;;;;;4925043;29;20192;-73
2023/04/09 07:54:00;;;;;;;21.67;17.67;;;7.00;99.90;;;;;;4926713;29;20296;-72
2023/04/09 07:56:27;;;;;;;23.57;18.93;;;7.00;99.90;;;;;;4927277;29;20290;-73
2023/04/09 07:58:54;;;;;;;22.13;17.73;;;7.10;99.90;;;;;;4926924;29;20223;-72
2023/04/09 08:01:23;;;;;;;23.93;18.23;;;7.00;99.90;;;;;;4927661;29;20326;-73
2023/04/09 08:03:50;;;;;;;23.80;19.17;;;7.10;99.90;;;;;;4927562;29;20295;-72
2023/04/09 08:06:18;;;;;;;21.77;18.33;;;7.20;99.90;;;;;;4927677;29;20279;-72
2023/04/09 08:08:45;;;;;;;23.83;18.60;;;7.20;99.90;;;;;;4927584;29;20240;-73
2023/04/09 08:11:12;;;;;;;21.27;17.77;;;7.30;99.90;;;;;;4927990;29;20223;-73
2023/04/09 08:13:39;;;;;;;22.23;18.67;;;7.20;99.90;;;;;;4928301;29;20267;-73
2023/04/09 08:16:06;;;;;;;21.83;18.43;;;7.20;99.90;;;;;;4927678;29;20405;-74
2023/04/09 08:18:33;;;;;;;23.07;18.17;;;7.10;99.90;;;;;;4928437;29;20216;-72
2023/04/09 08:21:04;;;;;;;23.90;19.30;;;7.00;99.90;;;;;;4925696;29;20235;-72
2023/04/09 08:23:33;;;;;;;21.67;18.23;;;6.90;99.90;;;;;;4928405;29;20224;-72
2023/04/09 08:26:00;;;;;;;21.53;18.03;;;7.00;99.90;;;;;;4928167;29;20212;-73
2023/04/09 08:28:27;;;;;;;22.03;18.20;;;6.90;99.90;;;;;;4928067;29;20302;-73
2023/04/09 08:30:53;;;;;;;21.93;18.80;;;7.10;99.90;;;;;;4927780;29;20211;-72
2023/04/09 08:33:20;;;;;;;22.97;19.33;;;7.20;99.90;;;;;;4927602;29;20742;-72
2023/04/09 08:35:48;;;;;;;22.47;18.93;;;7.20;99.90;;;;;;4928197;29;20310;-73
2023/04/09 08:38:15;;;;;;;21.43;17.90;;;7.20;99.90;;;;;;4927715;29;20584;-73
2023/04/09 08:40:46;;;;;;;24.03;18.80;;;7.30;99.90;;;;;;4927711;29;20228;-72
2023/04/09 08:43:16;;;;;;;22.70;18.77;;;7.40;99.90;;;;;;4928015;29;20259;-73
2023/04/09 08:45:43;;;;;;;22.17;18.27;;;7.50;99.90;;;;;;4927679;29;20738;-73
2023/04/09 08:48:12;;;;;;;20.67;18.13;;;7.60;99.90;;;;;;4927657;29;20208;-72
2023/04/09 08:50:39;;;;;;;21.67;18.83;;;7.70;99.90;;;;;;4927985;29;20286;-72
2023/04/09 08:53:09;;;;;;;22.27;18.83;;;7.90;99.90;;;;;;4927632;29;20240;-73
2023/04/09 08:55:37;;;;;;;21.63;18.90;;;7.90;99.90;;;;;;4931446;29;20307;-73
2023/04/09 08:58:08;;;;;;;22.60;19.07;;;8.00;99.90;;;;;;4931232;29;20659;-72
2023/04/09 09:00:37;;;;;;;21.70;17.87;;;8.10;99.90;;;;;;4931858;29;20323;-72
2023/04/09 09:03:06;;;;;;;21.10;18.63;;;8.00;99.90;;;;;;4925735;29;20207;-72
2023/04/09 09:05:38;;;;;;;23.30;19.10;;;8.00;99.90;;;;;;4931883;29;20632;-73
2023/04/09 09:08:09;;;;;;;23.77;18.77;;;8.00;99.90;;;;;;4931474;29;20646;-72
2023/04/09 09:10:41;;;;;;;24.50;20.37;;;8.10;99.90;;;;;;4931286;29;20215;-73
2023/04/09 09:13:20;;;;;;;25.20;20.50;;;8.20;99.90;;;;;;4931369;29;20287;-72
2023/04/09 09:15:49;;;;;;;25.20;20.47;;;8.20;99.90;;;;;;4931058;29;20236;-72
2023/04/09 09:18:17;;;;;;;25.33;20.30;;;8.30;99.90;;;;;;4931543;29;20255;-72
2023/04/09 09:20:44;;;;;;;26.37;20.50;;;8.30;99.90;;;;;;4931349;29;20251;-73
2023/04/09 09:23:13;;;;;;;25.10;20.57;;;8.40;99.90;;;;;;4931290;28;20215;-72
2023/04/09 09:25:42;;;;;;;55.90;44.93;;;8.40;99.90;;;;;;4930971;29;20244;-72
2023/04/09 09:28:10;;;;;;;47.70;36.30;;;8.40;99.90;;;;;;4930876;29;20208;-73
2023/04/09 09:30:40;;;;;;;30.13;23.67;;;8.40;99.90;;;;;;4931277;29;20216;-73
2023/04/09 09:33:09;;;;;;;25.77;21.10;;;8.50;99.90;;;;;;4931087;29;20212;-73
2023/04/09 09:35:49;;;;;;;25.33;21.10;;;8.60;99.90;;;;;;4930914;29;20287;-72
2023/04/09 09:38:17;;;;;;;27.30;21.30;;;8.50;99.90;;;;;;4931200;29;20212;-73
2023/04/09 09:40:44;;;;;;;27.17;20.90;;;8.60;99.90;;;;;;4930926;29;20243;-73
2023/04/09 09:43:13;;;;;;;27.83;22.23;;;8.60;99.90;;;;;;4930844;29;20212;-73
2023/04/09 09:45:43;;;;;;;25.63;20.83;;;8.70;99.90;;;;;;4930712;29;20219;-72
2023/04/09 09:48:11;;;;;;;26.83;21.60;;;8.80;99.90;;;;;;4930543;29;20605;-73
2023/04/09 09:50:40;;;;;;;24.80;21.07;;;8.80;99.90;;;;;;4930499;29;20212;-73
2023/04/09 09:53:08;;;;;;;27.40;21.70;;;8.90;99.90;;;;;;4930272;29;20212;-72
2023/04/09 09:55:48;;;;;;;27.00;21.93;;;9.00;99.90;;;;;;4930577;29;20255;-72
2023/04/09 09:58:18;;;;;;;26.13;21.13;;;9.00;99.90;;;;;;4927313;29;20283;-73
2023/04/09 10:00:50;;;;;;;26.47;22.00;;;9.10;99.90;;;;;;4930102;29;20323;-73
2023/04/09 10:03:22;;;;;;;27.07;22.10;;;9.10;99.90;;;;;;4929776;29;20557;-73
2023/04/09 10:05:50;;;;;;;26.30;22.43;;;9.20;99.90;;;;;;4930023;29;20283;-71
2023/04/09 10:08:18;;;;;;;25.20;21.27;;;9.20;99.90;;;;;;4930253;29;20280;-74
2023/04/09 10:10:47;;;;;;;26.80;21.73;;;9.20;99.90;;;;;;4930540;29;20218;-73
2023/04/09 10:13:20;;;;;;;26.33;21.90;;;9.30;99.90;;;;;;4929231;29;20220;-73
2023/04/09 10:15:49;;;;;;;25.93;20.93;;;9.40;99.90;;;;;;4929465;29;20656;-73
2023/04/09 10:18:17;;;;;;;23.77;20.00;;;9.50;99.90;;;;;;4929348;29;20287;-73
2023/04/09 10:20:50;;;;;;;25.87;21.70;;;9.60;99.90;;;;;;4929220;29;20343;-73
2023/04/09 10:23:27;;;;;;;26.70;21.43;;;9.60;99.90;;;;;;4929555;29;20239;-73
2023/04/09 10:25:54;;;;;;;25.20;21.70;;;9.60;99.90;;;;;;4929828;29;20207;-73
2023/04/09 10:28:23;;;;;;;29.30;21.23;;;9.70;99.90;;;;;;4930064;29;20209;-73
2023/04/09 10:30:53;;;;;;;25.50;21.60;;;9.70;99.90;;;;;;4930209;29;20984;-73
2023/04/09 10:33:25;;;;;;;26.53;21.00;;;9.90;99.90;;;;;;4930232;29;20287;-73
2023/04/09 10:35:53;;;;;;;24.73;20.17;;;10.00;99.90;;;;;;4911153;29;20204;-73
2023/04/09 10:38:34;;;;;;;22.20;19.47;;;10.00;99.90;;;;;;4911398;29;20212;-73
2023/04/09 10:41:13;;;;;;;25.60;21.20;;;10.20;99.90;;;;;;4911121;29;20233;-73
2023/04/09 10:43:41;;;;;;;24.33;19.93;;;10.20;99.90;;;;;;4910870;29;20754;-73
2023/04/09 10:46:25;;;;;;;23.53;20.10;;;10.30;99.90;;;;;;4933021;29;20733;-73
2023/04/09 10:49:08;;;;;;;24.57;19.53;;;10.30;99.90;;;;;;4948790;28;20196;-73
2023/04/09 10:51:37;;;;;;;23.40;19.23;;;10.40;99.90;;;;;;4948983;28;20306;-73
2023/04/09 10:54:04;;;;;;;23.27;19.37;;;10.50;99.90;;;;;;4941385;28;20247;-73
2023/04/09 10:56:31;;;;;;;25.73;20.93;;;10.60;99.90;;;;;;4929738;29;20331;-73
2023/04/09 10:58:58;;;;;;;21.93;19.20;;;10.80;99.90;;;;;;4929397;29;20223;-73
2023/04/09 11:01:27;;;;;;;21.93;18.67;;;10.90;99.90;;;;;;4928765;29;20296;-73
2023/04/09 11:04:08;;;;;;;29.33;18.50;;;10.90;99.90;;;;;;4929019;29;20220;-73
2023/04/09 11:06:37;;;;;;;20.50;16.93;;;11.10;99.90;;;;;;4929503;29;20236;-73
2023/04/09 11:09:04;;;;;;;20.00;17.47;;;11.30;99.90;;;;;;4929017;29;20888;-73
2023/04/09 11:11:32;;;;;;;18.97;16.90;;;11.40;99.90;;;;;;4929538;29;21053;-73
2023/04/09 11:14:00;;;;;;;21.17;18.40;;;11.50;99.90;;;;;;4929043;29;20203;-73
2023/04/09 11:16:29;;;;;;;18.50;16.37;;;11.60;99.90;;;;;;4928329;29;20964;-73
2023/04/09 11:18:56;;;;;;;20.23;17.80;;;11.70;99.90;;;;;;4929565;29;20327;-73
2023/04/09 11:21:27;;;;;;;20.97;17.77;;;11.90;99.90;;;;;;4929501;29;20311;-73
2023/04/09 11:23:54;;;;;;;20.37;17.33;;;11.90;99.90;;;;;;4928837;29;20958;-74
2023/04/09 11:26:25;;;;;;;19.40;17.30;;;12.00;99.90;;;;;;4928867;29;20212;-73
2023/04/09 11:28:57;;;;;;;19.80;16.87;;;12.00;99.90;;;;;;4928863;29;20236;-73
2023/04/09 11:31:29;;;;;;;19.27;16.43;;;11.90;99.90;;;;;;4928901;29;20218;-73
2023/04/09 11:33:55;;;;;;;19.43;17.33;;;11.90;99.90;;;;;;4929137;29;20207;-73
2023/04/09 11:36:22;;;;;;;20.23;16.10;;;11.90;99.90;;;;;;4929102;29;20619;-73
2023/04/09 11:38:50;;;;;;;21.93;17.00;;;12.10;99.90;;;;;;4929067;29;20921;-73
2023/04/09 11:41:17;;;;;;;19.20;16.20;;;12.20;99.90;;;;;;4929072;29;20606;-73
2023/04/09 11:43:44;;;;;;;21.50;17.17;;;12.30;99.90;;;;;;4928156;29;20311;-73
2023/04/09 11:46:11;;;;;;;20.50;16.93;;;12.50;99.90;;;;;;4928551;29;20208;-73
2023/04/09 11:48:41;;;;;;;19.40;15.93;;;12.70;99.90;;;;;;4929078;29;20219;-73
2023/04/09 11:51:09;;;;;;;16.73;14.83;;;12.80;99.90;;;;;;4928641;29;20922;-73
2023/04/09 11:53:37;;;;;;;17.47;15.13;;;12.90;99.90;;;;;;4928678;29;20219;-73
2023/04/09 11:56:05;;;;;;;17.40;15.50;;;13.00;99.90;;;;;;4928419;29;20215;-73
2023/04/09 11:58:32;;;;;;;17.80;15.90;;;13.10;99.90;;;;;;4928473;29;20762;-73
2023/04/09 12:00:59;;;;;;;20.97;14.93;;;13.20;99.90;;;;;;4928101;29;20330;-74
2023/04/09 12:03:31;;;;;;;17.83;15.50;;;13.30;99.90;;;;;;4928621;29;20216;-73
2023/04/09 12:06:00;;;;;;;18.83;15.87;;;13.40;99.90;;;;;;4928469;29;20294;-74
2023/04/09 12:08:28;;;;;;;16.20;14.43;;;13.40;99.90;;;;;;4928428;29;20693;-74
2023/04/09 12:10:54;;;;;;;16.57;14.43;;;13.40;99.90;;;;;;4927846;29;20215;-74
2023/04/09 12:13:21;;;;;;;14.60;13.07;;;13.50;99.90;;;;;;4928430;29;20223;-74
2023/04/09 12:15:50;;;;;;;16.90;15.03;;;13.60;99.90;;;;;;4928125;29;20240;-74
2023/04/09 12:18:17;;;;;;;17.30;15.40;;;13.60;99.90;;;;;;4928705;29;20208;-74
2023/04/09 12:20:46;;;;;;;17.03;14.63;;;13.60;99.90;;;;;;4928286;29;20871;-74
2023/04/09 12:23:15;;;;;;;19.37;15.83;;;13.70;99.90;;;;;;4927935;29;20315;-74
2023/04/09 12:25:44;;;;;;;17.27;15.23;;;13.90;99.90;;;;;;4927557;29;20295;-75
2023/04/09 12:28:14;;;;;;;16.90;14.60;;;14.10;99.90;;;;;;4927617;29;20231;-74
2023/04/09 12:30:41;;;;;;;15.73;14.10;;;14.20;99.90;;;;;;4928202;29;20208;-74
2023/04/09 12:33:08;;;;;;;16.67;14.77;;;14.40;99.90;;;;;;4928198;29;20655;-73
2023/04/09 12:35:36;;;;;;;16.80;14.50;;;14.40;99.90;;;;;;4928068;29;20210;-73
2023/04/09 12:38:04;;;;;;;14.23;12.53;;;14.50;99.90;;;;;;4927448;29;20208;-73
2023/04/09 12:40:32;;;;;;;14.23;12.80;;;14.60;99.90;;;;;;4909472;29;20213;-73